sensor_id;sensor_type;location;lat;lon;timestamp;pressure;altitude;pressure_sealevel;temperature;humidity
23643;BME280;11998;55.788;37.572;2023-01-26T00:00:57;99715.66;;;-2.12;100.00
23643;BME280;11998;55.788;37.572;2023-01-26T00:01:59;99712.28;;;-2.11;100.00
23643;BME280;11998;55.788;37.572;2023-01-26T00:02:59;99703.91;;;-2.00;100.00
23643;BME280;11998;55.788;37.572;2023-01-26T00:04:00;99702.31;;;-1.97;100.00
23643;BME280;11998;55.788;37.572;2023-01-26T00:05:00;99717.84;;;-1.98;100.00
23643;BME280;11998;55.788;37.572;2023-01-26T00:06:08;99686.59;;;-2.01;100.00
23643;BME280;11998;55.788;37.572;2023-01-26T00:07:09;99706.34;;;-2.07;100.00
23643;BME280;11998;55.788;37.572;2023-01-26T00:08:10;99701.06;;;-2.10;100.00
23643;BME280;11998;55.788;37.572;2023-01-26T00:09:12;99712.34;;;-2.08;100.00
23643;BME280;11998;55.788;37.572;2023-01-26T00:10:14;99699.22;;;-2.12;100.00
23643;BME280;11998;55.788;37.572;2023-01-26T00:11:17;99710.44;;;-2.13;100.00
23643;BME280;11998;55.788;37.572;2023-01-26T00:12:18;99707.75;;;-2.16;100.00
23643;BME280;11998;55.788;37.572;2023-01-26T00:13:19;99701.69;;;-2.17;100.00
23643;BME280;11998;55.788;37.572;2023-01-26T00:14:19;99706.88;;;-2.17;100.00
23643;BME280;11998;55.788;37.572;2023-01-26T00:15:20;99698.16;;;-2.19;100.00
23643;BME280;11998;55.788;37.572;2023-01-26T00:16:21;99710.25;;;-2.19;100.00
23643;BME280;11998;55.788;37.572;2023-01-26T00:17:21;99711.13;;;-2.19;100.00
23643;BME280;11998;55.788;37.572;2023-01-26T00:18:28;99712.16;;;-2.14;100.00
23643;BME280;11998;55.788;37.572;2023-01-26T00:19:29;99718.13;;;-2.16;100.00
23643;BME280;11998;55.788;37.572;2023-01-26T00:20:29;99715.47;;;-2.18;100.00
23643;BME280;11998;55.788;37.572;2023-01-26T00:21:30;99712.88;;;-2.18;100.00
23643;BME280;11998;55.788;37.572;2023-01-26T00:22:31;99706.88;;;-2.17;100.00
23643;BME280;11998;55.788;37.572;2023-01-26T00:23:32;99706.94;;;-2.14;100.00
23643;BME280;11998;55.788;37.572;2023-01-26T00:24:33;99712.34;;;-2.08;100.00
23643;BME280;11998;55.788;37.572;2023-01-26T00:25:37;99714.91;;;-2.09;100.00
23643;BME280;11998;55.788;37.572;2023-01-26T00:26:41;99705.28;;;-2.12;100.00
23643;BME280;11998;55.788;37.572;2023-01-26T00:27:41;99705.50;;;-2.05;100.00
23643;BME280;11998;55.788;37.572;2023-01-26T00:28:42;99703.03;;;-2.01;100.00
23643;BME280;11998;55.788;37.572;2023-01-26T00:29:43;99704.75;;;-2.01;100.00
23643;BME280;11998;55.788;37.572;2023-01-26T00:30:43;99714.41;;;-1.97;100.00
23643;BME280;11998;55.788;37.572;2023-01-26T00:31:44;99710.09;;;-1.97;100.00
23643;BME280;11998;55.788;37.572;2023-01-26T00:32:45;99702.28;;;-1.98;100.00
23643;BME280;11998;55.788;37.572;2023-01-26T00:33:45;99713.53;;;-1.98;100.00
23643;BME280;11998;55.788;37.572;2023-01-26T00:34:46;99716.84;;;-2.02;100.00
23643;BME280;11998;55.788;37.572;2023-01-26T00:35:53;99709.00;;;-2.03;100.00
23643;BME280;11998;55.788;37.572;2023-01-26T00:36:53;99708.28;;;-1.99;100.00
23643;BME280;11998;55.788;37.572;2023-01-26T00:37:54;99710.81;;;-2.01;100.00
23643;BME280;11998;55.788;37.572;2023-01-26T00:38:55;99704.03;;;-1.97;100.00
23643;BME280;11998;55.788;37.572;2023-01-26T00:39:55;99707.56;;;-1.95;100.00
23643;BME280;11998;55.788;37.572;2023-01-26T00:40:56;99704.22;;;-1.91;100.00
23643;BME280;11998;55.788;37.572;2023-01-26T00:41:56;99712.91;;;-1.89;100.00
23643;BME280;11998;55.788;37.572;2023-01-26T00:43:06;99707.66;;;-1.92;100.00
23643;BME280;11998;55.788;37.572;2023-01-26T00:44:06;99721.25;;;-1.99;100.00
23643;BME280;11998;55.788;37.572;2023-01-26T00:45:07;99721.16;;;-2.02;100.00
23643;BME280;11998;55.788;37.572;2023-01-26T00:46:08;99714.28;;;-2.00;100.00
23643;BME280;11998;55.788;37.572;2023-01-26T00:47:11;99716.75;;;-2.05;100.00
23643;BME280;11998;55.788;37.572;2023-01-26T00:48:12;99714.03;;;-2.10;100.00
23643;BME280;11998;55.788;37.572;2023-01-26T00:49:12;99715.56;;;-2.15;100.00
23643;BME280;11998;55.788;37.572;2023-01-26T00:50:13;99726.69;;;-2.19;100.00
23643;BME280;11998;55.788;37.572;2023-01-26T00:51:14;99715.38;;;-2.21;100.00
23643;BME280;11998;55.788;37.572;2023-01-26T00:52:14;99723.03;;;-2.24;100.00
23643;BME280;11998;55.788;37.572;2023-01-26T00:53:15;99697.09;;;-2.24;100.00
23643;BME280;11998;55.788;37.572;2023-01-26T00:54:16;99705.00;;;-2.21;100.00
23643;BME280;11998;55.788;37.572;2023-01-26T00:55:17;99698.91;;;-2.23;100.00
23643;BME280;11998;55.788;37.572;2023-01-26T00:56:17;99699.81;;;-2.21;100.00
23643;BME280;11998;55.788;37.572;2023-01-26T00:57:18;99698.78;;;-2.26;100.00
23643;BME280;11998;55.788;37.572;2023-01-26T00:58:18;99703.13;;;-2.25;100.00
23643;BME280;11998;55.788;37.572;2023-01-26T00:59:19;99692.75;;;-2.25;100.00
23643;BME280;11998;55.788;37.572;2023-01-26T01:00:20;99701.50;;;-2.23;100.00
23643;BME280;11998;55.788;37.572;2023-01-26T01:01:21;99707.56;;;-2.22;100.00
23643;BME280;11998;55.788;37.572;2023-01-26T01:02:21;99700.78;;;-2.17;100.00
23643;BME280;11998;55.788;37.572;2023-01-26T01:03:22;99705.09;;;-2.18;100.00
23643;BME280;11998;55.788;37.572;2023-01-26T01:04:23;99710.34;;;-2.16;100.00
23643;BME280;11998;55.788;37.572;2023-01-26T01:05:26;99703.53;;;-2.13;100.00
23643;BME280;11998;55.788;37.572;2023-01-26T01:06:27;99700.22;;;-2.09;100.00
23643;BME280;11998;55.788;37.572;2023-01-26T01:07:27;99702.06;;;-2.04;100.00
23643;BME280;11998;55.788;37.572;2023-01-26T01:08:28;99703.75;;;-2.07;100.00
23643;BME280;11998;55.788;37.572;2023-01-26T01:09:31;99700.22;;;-2.09;100.00
23643;BME280;11998;55.788;37.572;2023-01-26T01:10:33;99697.56;;;-2.10;100.00
23643;BME280;11998;55.788;37.572;2023-01-26T01:11:34;99693.16;;;-2.13;100.00
23643;BME280;11998;55.788;37.572;2023-01-26T01:12:35;99693.16;;;-2.13;100.00
23643;BME280;11998;55.788;37.572;2023-01-26T01:13:36;99698.56;;;-2.07;100.00
23643;BME280;11998;55.788;37.572;2023-01-26T01:14:36;99704.03;;;-1.97;100.00
23643;BME280;11998;55.788;37.572;2023-01-26T01:15:37;99697.09;;;-1.98;100.00
23643;BME280;11998;55.788;37.572;2023-01-26T01:16:39;99701.47;;;-1.96;100.00
23643;BME280;11998;55.788;37.572;2023-01-26T01:17:40;99696.97;;;-2.01;100.00
23643;BME280;11998;55.788;37.572;2023-01-26T01:18:41;99691.97;;;-1.95;100.00
23643;BME280;11998;55.788;37.572;2023-01-26T01:19:42;99698.84;;;-1.97;100.00
23643;BME280;11998;55.788;37.572;2023-01-26T01:20:42;99686.59;;;-2.01;100.00
23643;BME280;11998;55.788;37.572;2023-01-26T01:21:43;99703.81;;;-2.03;100.00
23643;BME280;11998;55.788;37.572;2023-01-26T01:22:44;99703.91;;;-2.00;100.00
23643;BME280;11998;55.788;37.572;2023-01-26T01:23:44;99700.31;;;-2.05;100.00
23643;BME280;11998;55.788;37.572;2023-01-26T01:24:45;99690.75;;;-2.07;100.00
23643;BME280;11998;55.788;37.572;2023-01-26T01:25:45;99710.59;;;-2.09;100.00
23643;BME280;11998;55.788;37.572;2023-01-26T01:26:46;99706.38;;;-2.05;100.00
23643;BME280;11998;55.788;37.572;2023-01-26T01:27:46;99696.78;;;-2.08;100.00
23643;BME280;11998;55.788;37.572;2023-01-26T01:28:47;99701.97;;;-2.08;100.00
23643;BME280;11998;55.788;37.572;2023-01-26T01:29:51;99698.59;;;-2.05;100.00
23643;BME280;11998;55.788;37.572;2023-01-26T01:30:51;99697.72;;;-2.05;100.00
23643;BME280;11998;55.788;37.572;2023-01-26T01:31:52;99680.50;;;-2.02;100.00
23643;BME280;11998;55.788;37.572;2023-01-26T01:32:55;99689.19;;;-2.01;100.00
23643;BME280;11998;55.788;37.572;2023-01-26T01:33:56;99683.28;;;-1.97;100.00
23643;BME280;11998;55.788;37.572;2023-01-26T01:34:57;99692.06;;;-1.92;100.00
23643;BME280;11998;55.788;37.572;2023-01-26T01:35:59;99686.00;;;-1.93;100.00
23643;BME280;11998;55.788;37.572;2023-01-26T01:37:00;99679.97;;;-1.92;100.00
23643;BME280;11998;55.788;37.572;2023-01-26T01:38:00;99685.22;;;-1.90;100.00
23643;BME280;11998;55.788;37.572;2023-01-26T01:39:01;99690.31;;;-1.93;100.00
23643;BME280;11998;55.788;37.572;2023-01-26T01:40:02;99691.25;;;-1.91;100.00
23643;BME280;11998;55.788;37.572;2023-01-26T01:41:03;99686.97;;;-1.89;100.00
23643;BME280;11998;55.788;37.572;2023-01-26T01:42:04;99689.44;;;-1.94;100.00
23643;BME280;11998;55.788;37.572;2023-01-26T01:43:10;99688.59;;;-1.93;100.00
23643;BME280;11998;55.788;37.572;2023-01-26T01:44:20;99690.00;;;-2.02;100.00
23643;BME280;11998;55.788;37.572;2023-01-26T01:45:41;99692.94;;;-1.92;100.00
23643;BME280;11998;55.788;37.572;2023-01-26T01:46:45;99693.03;;;-1.89;100.00
23643;BME280;11998;55.788;37.572;2023-01-26T01:47:46;99700.78;;;-1.90;100.00
23643;BME280;11998;55.788;37.572;2023-01-26T01:49:19;99694.75;;;-1.89;100.00
23643;BME280;11998;55.788;37.572;2023-01-26T01:50:23;99678.16;;;-1.94;100.00
23643;BME280;11998;55.788;37.572;2023-01-26T01:51:34;99680.81;;;-1.93;100.00
23643;BME280;11998;55.788;37.572;2023-01-26T01:52:36;99677.28;;;-1.95;100.00
23643;BME280;11998;55.788;37.572;2023-01-26T01:53:39;99682.63;;;-1.90;100.00
23643;BME280;11998;55.788;37.572;2023-01-26T01:54:54;99684.91;;;-1.99;100.00
23643;BME280;11998;55.788;37.572;2023-01-26T01:55:58;99675.38;;;-2.00;100.00
23643;BME280;11998;55.788;37.572;2023-01-26T01:57:03;99676.22;;;-2.01;100.00
23643;BME280;11998;55.788;37.572;2023-01-26T01:58:06;99683.16;;;-2.00;100.00
23643;BME280;11998;55.788;37.572;2023-01-26T01:59:08;99670.19;;;-2.00;100.00
23643;BME280;11998;55.788;37.572;2023-01-26T02:00:13;99677.78;;;-2.07;100.00
23643;BME280;11998;55.788;37.572;2023-01-26T02:01:15;99676.94;;;-2.05;100.00
23643;BME280;11998;55.788;37.572;2023-01-26T02:02:16;99675.19;;;-2.07;100.00
23643;BME280;11998;55.788;37.572;2023-01-26T02:03:17;99675.09;;;-2.10;100.00
23643;BME280;11998;55.788;37.572;2023-01-26T02:04:20;99674.34;;;-2.05;100.00
23643;BME280;11998;55.788;37.572;2023-01-26T02:05:25;99670.09;;;-2.03;100.00
23643;BME280;11998;55.788;37.572;2023-01-26T02:06:41;99667.31;;;-2.10;100.00
23643;BME280;11998;55.788;37.572;2023-01-26T02:07:43;99668.16;;;-2.11;100.00
23643;BME280;11998;55.788;37.572;2023-01-26T02:08:46;99674.34;;;-2.05;100.00
23643;BME280;11998;55.788;37.572;2023-01-26T02:09:48;99661.44;;;-2.04;100.00
23643;BME280;11998;55.788;37.572;2023-01-26T02:11:15;99668.41;;;-2.01;100.00
23643;BME280;11998;55.788;37.572;2023-01-26T02:12:19;99658.19;;;-1.97;100.00
23643;BME280;11998;55.788;37.572;2023-01-26T02:13:21;99660.50;;;-2.06;100.00
23643;BME280;11998;55.788;37.572;2023-01-26T02:14:23;99669.09;;;-2.09;100.00
23643;BME280;11998;55.788;37.572;2023-01-26T02:15:25;99659.59;;;-2.08;100.00
23643;BME280;11998;55.788;37.572;2023-01-26T02:16:28;99658.78;;;-2.05;100.00
23643;BME280;11998;55.788;37.572;2023-01-26T02:17:28;99655.34;;;-2.04;100.00
23643;BME280;11998;55.788;37.572;2023-01-26T02:18:29;99653.59;;;-2.05;100.00
23643;BME280;11998;55.788;37.572;2023-01-26T02:20:55;99670.06;;;-2.05;100.00
23643;BME280;11998;55.788;37.572;2023-01-26T02:22:03;99664.06;;;-2.02;100.00
23643;BME280;11998;55.788;37.572;2023-01-26T02:24:33;99657.69;;;-2.12;100.00
23643;BME280;11998;55.788;37.572;2023-01-26T02:26:56;99668.97;;;-2.12;100.00
23643;BME280;11998;55.788;37.572;2023-01-26T02:27:57;99650.00;;;-2.11;100.00
23643;BME280;11998;55.788;37.572;2023-01-26T02:28:59;99650.09;;;-2.08;100.00
23643;BME280;11998;55.788;37.572;2023-01-26T02:30:04;99656.94;;;-2.10;100.00
23643;BME280;11998;55.788;37.572;2023-01-26T02:31:05;99657.94;;;-2.04;100.00
23643;BME280;11998;55.788;37.572;2023-01-26T02:32:06;99651.94;;;-2.03;100.00
23643;BME280;11998;55.788;37.572;2023-01-26T02:33:06;99643.22;;;-2.05;100.00
23643;BME280;11998;55.788;37.572;2023-01-26T02:34:08;99648.50;;;-2.02;100.00
23643;BME280;11998;55.788;37.572;2023-01-26T02:35:08;99650.38;;;-1.98;100.00
23643;BME280;11998;55.788;37.572;2023-01-26T02:36:19;99644.97;;;-2.04;100.00
23643;BME280;11998;55.788;37.572;2023-01-26T02:37:20;99636.34;;;-2.03;100.00
23643;BME280;11998;55.788;37.572;2023-01-26T02:38:21;99645.19;;;-1.98;100.00
23643;BME280;11998;55.788;37.572;2023-01-26T02:40:40;99640.00;;;-1.98;100.00
23643;BME280;11998;55.788;37.572;2023-01-26T02:41:42;99643.31;;;-2.02;100.00
23643;BME280;11998;55.788;37.572;2023-01-26T02:43:03;99639.88;;;-2.01;100.00
23643;BME280;11998;55.788;37.572;2023-01-26T02:44:06;99636.44;;;-2.00;100.00
23643;BME280;11998;55.788;37.572;2023-01-26T02:45:10;99643.41;;;-1.99;100.00
23643;BME280;11998;55.788;37.572;2023-01-26T02:46:11;99636.44;;;-2.00;100.00
23643;BME280;11998;55.788;37.572;2023-01-26T02:47:14;99643.41;;;-1.99;100.00
23643;BME280;11998;55.788;37.572;2023-01-26T02:48:16;99632.22;;;-1.98;100.00
23643;BME280;11998;55.788;37.572;2023-01-26T02:49:36;99625.97;;;-2.03;100.00
23643;BME280;11998;55.788;37.572;2023-01-26T02:50:46;99629.25;;;-2.11;100.00
23643;BME280;11998;55.788;37.572;2023-01-26T02:51:46;99629.31;;;-2.08;100.00
23643;BME280;11998;55.788;37.572;2023-01-26T02:52:47;99632.75;;;-2.09;100.00
23643;BME280;11998;55.788;37.572;2023-01-26T02:53:47;99626.69;;;-2.09;100.00
23643;BME280;11998;55.788;37.572;2023-01-26T02:54:52;99626.69;;;-2.09;100.00
23643;BME280;11998;55.788;37.572;2023-01-26T02:56:11;99620.72;;;-2.07;100.00
23643;BME280;11998;55.788;37.572;2023-01-26T02:57:12;99619.81;;;-2.07;100.00
23643;BME280;11998;55.788;37.572;2023-01-26T02:58:12;99612.91;;;-2.07;100.00
23643;BME280;11998;55.788;37.572;2023-01-26T02:59:13;99620.72;;;-2.07;100.00
23643;BME280;11998;55.788;37.572;2023-01-26T03:00:16;99612.88;;;-2.08;100.00
23643;BME280;11998;55.788;37.572;2023-01-26T03:01:17;99630.13;;;-2.10;100.00
23643;BME280;11998;55.788;37.572;2023-01-26T03:02:18;99616.97;;;-2.15;100.00
23643;BME280;11998;55.788;37.572;2023-01-26T03:03:22;99623.94;;;-2.14;100.00
23643;BME280;11998;55.788;37.572;2023-01-26T03:04:24;99629.25;;;-2.11;100.00
23643;BME280;11998;55.788;37.572;2023-01-26T03:05:26;99627.44;;;-2.12;100.00
23643;BME280;11998;55.788;37.572;2023-01-26T03:06:27;99625.69;;;-2.13;100.00
23643;BME280;11998;55.788;37.572;2023-01-26T03:07:27;99622.16;;;-2.15;100.00
23643;BME280;11998;55.788;37.572;2023-01-26T03:08:28;99620.63;;;-2.10;100.00
23643;BME280;11998;55.788;37.572;2023-01-26T03:09:28;99612.84;;;-2.10;100.00
23643;BME280;11998;55.788;37.572;2023-01-26T03:10:29;99618.06;;;-2.08;100.00
23643;BME280;11998;55.788;37.572;2023-01-26T03:11:29;99616.44;;;-2.04;100.00
23643;BME280;11998;55.788;37.572;2023-01-26T03:12:41;99613.09;;;-2.00;100.00
23643;BME280;11998;55.788;37.572;2023-01-26T03:13:41;99626.06;;;-2.00;100.00
23643;BME280;11998;55.788;37.572;2023-01-26T03:14:42;99617.28;;;-2.05;100.00
23643;BME280;11998;55.788;37.572;2023-01-26T03:15:42;99631.16;;;-2.03;100.00
23643;BME280;11998;55.788;37.572;2023-01-26T03:16:47;99613.75;;;-2.08;100.00
23643;BME280;11998;55.788;37.572;2023-01-26T03:17:48;99617.16;;;-2.10;100.00
23643;BME280;11998;55.788;37.572;2023-01-26T03:18:49;99616.97;;;-2.15;100.00
23643;BME280;11998;55.788;37.572;2023-01-26T03:20:05;99616.16;;;-2.14;100.00
23643;BME280;11998;55.788;37.572;2023-01-26T03:21:24;99608.28;;;-2.17;100.00
23643;BME280;11998;55.788;37.572;2023-01-26T03:22:44;99616.16;;;-2.14;100.00
23643;BME280;11998;55.788;37.572;2023-01-26T03:24:03;99617.06;;;-2.12;100.00
23643;BME280;11998;55.788;37.572;2023-01-26T03:25:23;99602.34;;;-2.13;100.00
23643;BME280;11998;55.788;37.572;2023-01-26T03:26:42;99612.00;;;-2.09;100.00
23643;BME280;11998;55.788;37.572;2023-01-26T03:28:01;99613.84;;;-2.04;100.00
23643;BME280;11998;55.788;37.572;2023-01-26T03:29:02;99620.66;;;-2.08;100.00
23643;BME280;11998;55.788;37.572;2023-01-26T03:30:06;99618.75;;;-2.14;100.00
23643;BME280;11998;55.788;37.572;2023-01-26T03:31:07;99621.63;;;-2.04;100.00
23643;BME280;11998;55.788;37.572;2023-01-26T03:32:07;99619.13;;;-2.01;100.00
23643;BME280;11998;55.788;37.572;2023-01-26T03:33:08;99627.81;;;-1.99;100.00
23643;BME280;11998;55.788;37.572;2023-01-26T03:34:08;99631.38;;;-1.97;100.00
23643;BME280;11998;55.788;37.572;2023-01-26T03:35:09;99624.50;;;-1.95;100.00
23643;BME280;11998;55.788;37.572;2023-01-26T03:36:14;99630.66;;;-1.92;100.00
23643;BME280;11998;55.788;37.572;2023-01-26T03:37:15;99626.44;;;-1.88;100.00
23643;BME280;11998;55.788;37.572;2023-01-26T03:38:15;99628.03;;;-1.93;100.00
23643;BME280;11998;55.788;37.572;2023-01-26T03:39:16;99614.13;;;-1.95;100.00
23643;BME280;11998;55.788;37.572;2023-01-26T03:40:35;99613.94;;;-2.01;100.00
23643;BME280;11998;55.788;37.572;2023-01-26T03:41:54;99607.91;;;-2.00;100.00
23643;BME280;11998;55.788;37.572;2023-01-26T03:43:13;99613.84;;;-2.04;100.00
23643;BME280;11998;55.788;37.572;2023-01-26T03:44:32;99615.47;;;-2.08;100.00
23643;BME280;11998;55.788;37.572;2023-01-26T03:45:51;99616.34;;;-2.08;100.00
23643;BME280;11998;55.788;37.572;2023-01-26T03:47:10;99612.75;;;-2.11;100.00
23643;BME280;11998;55.788;37.572;2023-01-26T03:48:29;99619.78;;;-2.09;100.00
23643;BME280;11998;55.788;37.572;2023-01-26T03:49:48;99615.44;;;-2.10;100.00
23643;BME280;11998;55.788;37.572;2023-01-26T03:51:08;99624.41;;;-1.98;100.00
23643;BME280;11998;55.788;37.572;2023-01-26T03:52:27;99615.81;;;-1.97;100.00
23643;BME280;11998;55.788;37.572;2023-01-26T03:53:48;99625.47;;;-1.92;100.00
23643;BME280;11998;55.788;37.572;2023-01-26T03:55:07;99609.94;;;-1.90;100.00
23643;BME280;11998;55.788;37.572;2023-01-26T03:56:26;99613.25;;;-1.96;100.00
23643;BME280;11998;55.788;37.572;2023-01-26T03:57:31;99616.06;;;-1.88;100.00
23643;BME280;11998;55.788;37.572;2023-01-26T03:58:32;99633.38;;;-1.87;100.00
23643;BME280;11998;55.788;37.572;2023-01-26T03:59:32;99609.09;;;-1.89;100.00
23643;BME280;11998;55.788;37.572;2023-01-26T04:00:39;99609.03;;;-1.92;100.00
23643;BME280;11998;55.788;37.572;2023-01-26T04:01:46;99607.19;;;-1.96;100.00
23643;BME280;11998;55.788;37.572;2023-01-26T04:03:05;99621.00;;;-1.97;100.00
23643;BME280;11998;55.788;37.572;2023-01-26T04:04:24;99630.56;;;-1.95;100.00
23643;BME280;11998;55.788;37.572;2023-01-26T04:05:43;99624.69;;;-1.89;100.00
23643;BME280;11998;55.788;37.572;2023-01-26T04:07:03;99621.25;;;-1.88;100.00
23643;BME280;11998;55.788;37.572;2023-01-26T04:08:22;99631.53;;;-1.91;100.00
23643;BME280;11998;55.788;37.572;2023-01-26T04:09:30;99629.78;;;-1.92;100.00
23643;BME280;11998;55.788;37.572;2023-01-26T04:10:31;99626.25;;;-1.94;100.00
23643;BME280;11998;55.788;37.572;2023-01-26T04:11:31;99618.56;;;-1.91;100.00
23643;BME280;11998;55.788;37.572;2023-01-26T04:12:35;99631.53;;;-1.91;100.00
23643;BME280;11998;55.788;37.572;2023-01-26T04:13:35;99633.00;;;-1.99;100.00
23643;BME280;11998;55.788;37.572;2023-01-26T04:14:54;99617.66;;;-1.93;100.00
23643;BME280;11998;55.788;37.572;2023-01-26T04:16:14;99623.66;;;-1.94;100.00
23643;BME280;11998;55.788;37.572;2023-01-26T04:17:33;99628.03;;;-1.93;100.00
23643;BME280;11998;55.788;37.572;2023-01-26T04:18:53;99613.28;;;-1.94;100.00
23643;BME280;11998;55.788;37.572;2023-01-26T04:20:12;99616.63;;;-1.98;100.00
23643;BME280;11998;55.788;37.572;2023-01-26T04:21:31;99617.44;;;-1.99;100.00
23643;BME280;11998;55.788;37.572;2023-01-26T04:22:38;99620.03;;;-1.99;100.00
23643;BME280;11998;55.788;37.572;2023-01-26T04:23:44;99622.53;;;-2.02;100.00
23643;BME280;11998;55.788;37.572;2023-01-26T04:24:45;99615.63;;;-2.02;100.00
23643;BME280;11998;55.788;37.572;2023-01-26T04:25:47;99624.47;;;-1.97;100.00
23643;BME280;11998;55.788;37.572;2023-01-26T04:26:48;99620.88;;;-2.00;100.00
23643;BME280;11998;55.788;37.572;2023-01-26T04:27:49;99615.69;;;-2.00;100.00
23643;BME280;11998;55.788;37.572;2023-01-26T04:28:49;99618.28;;;-2.00;100.00
23643;BME280;11998;55.788;37.572;2023-01-26T04:29:50;99608.78;;;-2.00;100.00
23643;BME280;11998;55.788;37.572;2023-01-26T04:30:50;99619.22;;;-1.98;100.00
23643;BME280;11998;55.788;37.572;2023-01-26T04:31:51;99617.34;;;-2.02;100.00
23643;BME280;11998;55.788;37.572;2023-01-26T04:32:52;99621.53;;;-2.08;100.00
23643;BME280;11998;55.788;37.572;2023-01-26T04:33:52;99605.88;;;-2.11;100.00
23643;BME280;11998;55.788;37.572;2023-01-26T04:34:53;99623.06;;;-2.14;100.00
23643;BME280;11998;55.788;37.572;2023-01-26T04:35:53;99617.94;;;-2.11;100.00
23643;BME280;11998;55.788;37.572;2023-01-26T04:36:54;99620.50;;;-2.13;100.00
23643;BME280;11998;55.788;37.572;2023-01-26T04:37:54;99616.91;;;-2.18;100.00
23643;BME280;11998;55.788;37.572;2023-01-26T04:38:55;99618.75;;;-2.14;100.00
23643;BME280;11998;55.788;37.572;2023-01-26T04:39:56;99610.31;;;-2.07;100.00
23643;BME280;11998;55.788;37.572;2023-01-26T04:40:57;99614.63;;;-2.07;100.00
23643;BME280;11998;55.788;37.572;2023-01-26T04:41:58;99621.50;;;-2.09;100.00
23643;BME280;11998;55.788;37.572;2023-01-26T04:42:58;99620.50;;;-2.13;100.00
23643;BME280;11998;55.788;37.572;2023-01-26T04:43:59;99616.16;;;-2.14;100.00
23643;BME280;11998;55.788;37.572;2023-01-26T04:44:59;99613.66;;;-2.11;100.00
23643;BME280;11998;55.788;37.572;2023-01-26T04:46:03;99612.00;;;-2.09;100.00
23643;BME280;11998;55.788;37.572;2023-01-26T04:47:04;99623.31;;;-2.07;100.00
23643;BME280;11998;55.788;37.572;2023-01-26T04:48:04;99620.78;;;-2.03;100.00
23643;BME280;11998;55.788;37.572;2023-01-26T04:49:05;99629.31;;;-2.08;100.00
23643;BME280;11998;55.788;37.572;2023-01-26T04:50:06;99619.88;;;-2.05;100.00
23643;BME280;11998;55.788;37.572;2023-01-26T04:51:15;99619.88;;;-2.05;100.00
23643;BME280;11998;55.788;37.572;2023-01-26T04:52:16;99618.94;;;-2.08;100.00
23643;BME280;11998;55.788;37.572;2023-01-26T04:53:17;99619.91;;;-2.04;100.00
23643;BME280;11998;55.788;37.572;2023-01-26T04:54:17;99619.94;;;-2.02;100.00
23643;BME280;11998;55.788;37.572;2023-01-26T04:55:18;99613.94;;;-2.01;100.00
23643;BME280;11998;55.788;37.572;2023-01-26T04:56:27;99614.84;;;-1.99;100.00
23643;BME280;11998;55.788;37.572;2023-01-26T04:57:28;99613.09;;;-2.00;100.00
23643;BME280;11998;55.788;37.572;2023-01-26T04:58:28;99610.31;;;-2.07;100.00
23643;BME280;11998;55.788;37.572;2023-01-26T04:59:29;99608.75;;;-2.01;100.00
23643;BME280;11998;55.788;37.572;2023-01-26T05:00:30;99614.03;;;-1.98;100.00
23643;BME280;11998;55.788;37.572;2023-01-26T05:01:31;99614.16;;;-1.94;100.00
23643;BME280;11998;55.788;37.572;2023-01-26T05:02:31;99621.25;;;-1.88;100.00
23643;BME280;11998;55.788;37.572;2023-01-26T05:03:32;99601.31;;;-1.89;100.00
23643;BME280;11998;55.788;37.572;2023-01-26T05:04:32;99613.56;;;-1.85;100.00
23643;BME280;11998;55.788;37.572;2023-01-26T05:05:37;99607.53;;;-1.84;100.00
23643;BME280;11998;55.788;37.572;2023-01-26T05:06:38;99597.94;;;-1.87;100.00
23643;BME280;11998;55.788;37.572;2023-01-26T05:07:38;99599.63;;;-1.87;100.00
23643;BME280;11998;55.788;37.572;2023-01-26T05:08:39;99600.44;;;-1.90;100.00
23643;BME280;11998;55.788;37.572;2023-01-26T05:09:39;99609.19;;;-1.86;100.00
23643;BME280;11998;55.788;37.572;2023-01-26T05:10:40;99598.81;;;-1.86;100.00
23643;BME280;11998;55.788;37.572;2023-01-26T05:11:41;99598.81;;;-1.86;100.00
23643;BME280;11998;55.788;37.572;2023-01-26T05:12:42;99594.53;;;-1.86;100.00
23643;BME280;11998;55.788;37.572;2023-01-26T05:13:43;99604.94;;;-1.84;100.00
23643;BME280;11998;55.788;37.572;2023-01-26T05:14:45;99610.03;;;-1.87;100.00
23643;BME280;11998;55.788;37.572;2023-01-26T05:15:46;99597.03;;;-1.87;100.00
23643;BME280;11998;55.788;37.572;2023-01-26T05:16:46;99597.03;;;-1.87;100.00
23643;BME280;11998;55.788;37.572;2023-01-26T05:17:47;99581.38;;;-1.90;100.00
23643;BME280;11998;55.788;37.572;2023-01-26T05:18:47;99601.41;;;-1.86;100.00
23643;BME280;11998;55.788;37.572;2023-01-26T05:19:48;99596.97;;;-1.90;100.00
23643;BME280;11998;55.788;37.572;2023-01-26T05:20:49;99587.38;;;-1.93;100.00
23643;BME280;11998;55.788;37.572;2023-01-26T05:21:49;99587.34;;;-1.94;100.00
23643;BME280;11998;55.788;37.572;2023-01-26T05:22:50;99601.16;;;-1.95;100.00
23643;BME280;11998;55.788;37.572;2023-01-26T05:23:50;99601.09;;;-1.97;100.00
23643;BME280;11998;55.788;37.572;2023-01-26T05:24:51;99593.28;;;-1.98;100.00
23643;BME280;11998;55.788;37.572;2023-01-26T05:25:51;99588.84;;;-2.01;100.00
23643;BME280;11998;55.788;37.572;2023-01-26T05:26:52;99603.47;;;-2.04;100.00
23643;BME280;11998;55.788;37.572;2023-01-26T05:28:13;99604.38;;;-2.02;100.00
23643;BME280;11998;55.788;37.572;2023-01-26T05:29:13;99607.19;;;-1.96;100.00
23643;BME280;11998;55.788;37.572;2023-01-26T05:30:14;99606.44;;;-1.92;100.00
23643;BME280;11998;55.788;37.572;2023-01-26T05:31:15;99615.97;;;-1.91;100.00
23643;BME280;11998;55.788;37.572;2023-01-26T05:32:16;99604.84;;;-1.87;100.00
23643;BME280;11998;55.788;37.572;2023-01-26T05:33:17;99616.97;;;-1.86;100.00
23643;BME280;11998;55.788;37.572;2023-01-26T05:34:21;99600.69;;;-1.82;100.00
23643;BME280;11998;55.788;37.572;2023-01-26T05:35:22;99604.84;;;-1.87;100.00
23643;BME280;11998;55.788;37.572;2023-01-26T05:36:22;99597.00;;;-1.89;100.00